CheckWX is a tool to help pilots better visualize weather data.  It is not intended as a substitute for an official pre-flight weather briefing.

09:43:13 UTC

KSBN METAR
South Bend International Airport
South Bend, Indiana, USA
Current

13 mins ago

KSBN 220930Z 18007KT 2 1/2SM +RA BR BKN029 BKN038 OVC055 10/09 A2996 RMK AO2 VIS 1 3/4V4 P0011 T01000089 $
Observed
May-22 @ 09:30 UTC
Wind
  • 180° at 7 KTS
Visibility
2 1/2 SM
Flight Rules
IFR
Conditions
Heavy Rain, Mist
Cloud Levels
  • Broken at 2,900' AGL
  • Broken at 3,800' AGL
  • Overcast at 5,500' AGL
Temperature
10°C / 50°F
Dewpoint
C / 48°F
Humidity
94%
Altimeter
29.96" Hg
Pressure
1014.52 hPa
Current Rain
0.11"
Previous

49 mins ago

KSBN 220854Z AUTO 11015G21KT 8SM RA SCT046 BKN065 OVC110 11/08 A2991 RMK AO2 SLP131 P0004 60004 T01060083 58013 $
Observed
May-22 @ 08:54 UTC
Wind
  • 110° at 15 KTS
  • Gusting to 21 KTS
Visibility
8 SM
Flight Rules
VFR
Conditions
Rain
Cloud Levels
  • Scattered at 4,600' AGL
  • Broken at 6,500' AGL
  • Overcast at 11,000' AGL
Temperature
11°C / 52°F
Dewpoint
C / 46°F
Humidity
82%
Altimeter
29.91" Hg
Pressure
1012.92 hPa
Current Rain
0.04"
Previous

2 hours ago

KSBN 220754Z AUTO 12016G27KT 10SM -RA FEW050 BKN095 OVC110 12/07 A2994 RMK AO2 PK WND 12027/0745 RAB34 SLP141 P0000 T01170067 $
Observed
May-22 @ 07:54 UTC
Wind
  • 120° at 16 KTS
  • Gusting to 27 KTS
Visibility
10 SM
Flight Rules
VFR
Conditions
Light Rain
Cloud Levels
  • Few at 5,000' AGL
  • Broken at 9,500' AGL
  • Overcast at 11,000' AGL
Temperature
12°C / 54°F
Dewpoint
C / 45°F
Humidity
72%
Altimeter
29.94" Hg
Pressure
1013.92 hPa
Current Rain
0.01"